createdAt,value
2024-01-15T00:00:26.040Z,70.42
2024-01-15T00:02:52.879Z,70.57
2024-01-15T00:05:19.750Z,70.26
2024-01-15T00:07:46.809Z,69.99
2024-01-15T00:10:13.642Z,70.15
2024-01-15T00:12:40.573Z,70.15
2024-01-15T00:15:07.905Z,70.51
2024-01-15T00:17:34.841Z,70.67
2024-01-15T00:20:02.082Z,70.89
2024-01-15T00:22:29.040Z,70.19
2024-01-15T00:24:56.023Z,70.51
2024-01-15T00:27:23.249Z,70.75
2024-01-15T00:29:51.638Z,70.25
2024-01-15T00:32:18.480Z,70.57
2024-01-15T00:34:45.732Z,70.92
2024-01-15T00:37:13.061Z,69.71
2024-01-15T00:39:39.958Z,70.41
2024-01-15T00:42:06.843Z,69.87
2024-01-15T00:44:33.681Z,70.34
2024-01-15T00:47:00.852Z,69.68
2024-01-15T00:49:28.319Z,70.28
2024-01-15T00:51:55.423Z,70.34
2024-01-15T00:54:22.342Z,70.07
2024-01-15T00:56:54.596Z,70.64
2024-01-15T00:59:21.932Z,70.19
2024-01-15T01:01:49.119Z,69.58
2024-01-15T01:04:15.985Z,69.87
2024-01-15T01:06:43.023Z,69.38
2024-01-15T01:09:09.992Z,69.99
2024-01-15T01:11:40.199Z,70.14
2024-01-15T01:14:07.617Z,70.22
2024-01-15T01:16:40.293Z,70.61
2024-01-15T01:19:08.427Z,70.83
2024-01-15T01:21:35.672Z,70.79
2024-01-15T01:24:02.509Z,71.02
2024-01-15T01:26:29.317Z,70.25
2024-01-15T01:28:56.465Z,69.46
2024-01-15T01:31:24.379Z,70.17
2024-01-15T01:33:51.388Z,69.56
2024-01-15T01:36:18.272Z,69.93
2024-01-15T01:38:45.132Z,70.68
2024-01-15T01:41:12.225Z,71.13
2024-01-15T01:43:39.083Z,70.58
2024-01-15T01:46:05.911Z,71.06
2024-01-15T01:48:32.781Z,71.10
2024-01-15T01:51:01.435Z,70.60
2024-01-15T01:53:28.548Z,70.05
2024-01-15T01:55:55.828Z,70.54
2024-01-15T01:58:22.637Z,70.95
2024-01-15T02:00:50.621Z,71.67
2024-01-15T02:03:17.637Z,71.21
2024-01-15T02:05:46.184Z,72.82
2024-01-15T02:08:13.308Z,73.81
2024-01-15T02:10:40.114Z,73.48
2024-01-15T02:13:07.055Z,73.31
2024-01-15T02:15:33.941Z,72.53
2024-01-15T02:18:02.331Z,73.00
2024-01-15T02:20:29.601Z,72.23
2024-01-15T02:23:20.687Z,72.04
2024-01-15T02:25:48.001Z,72.40
2024-01-15T02:28:18.545Z,72.63
2024-01-15T02:30:45.907Z,71.11
2024-01-15T02:33:13.587Z,71.84
2024-01-15T02:35:41.091Z,72.30
2024-01-15T02:38:08.091Z,73.08
2024-01-15T02:40:36.153Z,72.45
2024-01-15T02:43:03.024Z,73.10
2024-01-15T02:45:30.079Z,73.32
2024-01-15T02:47:57.377Z,72.73
2024-01-15T02:50:24.278Z,72.18
2024-01-15T02:52:51.540Z,73.26
2024-01-15T02:55:18.282Z,72.63
2024-01-15T02:57:45.306Z,71.96
2024-01-15T03:00:13.016Z,71.67
2024-01-15T03:02:42.981Z,71.87
2024-01-15T03:05:11.511Z,71.91
2024-01-15T03:07:38.715Z,72.47
2024-01-15T03:10:14.191Z,72.77
2024-01-15T03:12:41.075Z,72.89
2024-01-15T03:15:08.233Z,72.55
2024-01-15T03:17:35.142Z,72.12
2024-01-15T03:20:02.927Z,72.80
2024-01-15T03:22:29.772Z,72.69
2024-01-15T03:24:56.696Z,73.04
2024-01-15T03:27:23.524Z,73.66
2024-01-15T03:29:55.631Z,72.05
2024-01-15T03:32:22.451Z,72.20
2024-01-15T03:34:49.702Z,72.06
2024-01-15T03:37:16.668Z,72.90
2024-01-15T03:39:43.503Z,73.48
2024-01-15T03:42:10.408Z,74.12
2024-01-15T03:44:37.257Z,73.86
2024-01-15T03:47:04.111Z,73.85
2024-01-15T03:49:31.356Z,73.53
2024-01-15T03:51:58.290Z,73.69
2024-01-15T03:54:28.386Z,74.12
2024-01-15T03:56:55.204Z,73.77
2024-01-15T03:59:22.002Z,74.11
2024-01-15T04:01:52.174Z,73.61
2024-01-15T04:04:19.615Z,74.15
2024-01-15T04:06:46.742Z,73.40
2024-01-15T04:09:14.926Z,73.56
2024-01-15T04:11:41.859Z,72.83
2024-01-15T04:14:08.601Z,73.49
2024-01-15T04:16:35.834Z,72.97
2024-01-15T04:19:02.844Z,73.34
2024-01-15T04:21:29.889Z,71.84
2024-01-15T04:23:56.671Z,72.55
2024-01-15T04:26:23.547Z,72.13
2024-01-15T04:28:50.851Z,71.41
2024-01-15T04:31:28.845Z,71.74
2024-01-15T04:33:56.073Z,71.81
2024-01-15T04:36:26.324Z,72.89
2024-01-15T04:38:53.122Z,73.23
2024-01-15T04:41:20.081Z,72.74
2024-01-15T04:43:47.757Z,72.86
2024-01-15T04:46:14.614Z,72.50
2024-01-15T04:48:41.554Z,72.23
2024-01-15T04:51:10.354Z,72.85
2024-01-15T04:53:37.329Z,72.38
2024-01-15T04:56:04.371Z,72.29
2024-01-15T04:58:31.562Z,72.37
2024-01-15T05:01:01.427Z,72.64
2024-01-15T05:03:28.475Z,72.03
2024-01-15T05:05:55.408Z,72.48
2024-01-15T05:08:22.531Z,71.94
2024-01-15T05:10:49.733Z,72.05
2024-01-15T05:13:16.582Z,72.88
2024-01-15T05:15:43.563Z,72.29
2024-01-15T05:18:11.167Z,72.56
2024-01-15T05:20:38.085Z,72.44
2024-01-15T05:23:07.654Z,72.21
2024-01-15T05:25:34.886Z,72.16
2024-01-15T05:28:01.680Z,71.40
2024-01-15T05:30:28.795Z,71.18
2024-01-15T05:32:55.935Z,71.28
2024-01-15T05:35:22.805Z,72.32
2024-01-15T05:37:49.904Z,71.99
2024-01-15T05:40:16.755Z,72.24
2024-01-15T05:42:43.672Z,71.77
2024-01-15T05:45:10.825Z,71.04
2024-01-15T05:47:37.888Z,70.50
2024-01-15T05:50:06.547Z,70.34
2024-01-15T05:52:33.829Z,70.82
2024-01-15T05:55:00.718Z,70.64
2024-01-15T05:57:27.662Z,71.10
2024-01-15T05:59:54.599Z,70.90
2024-01-15T06:02:22.736Z,70.59
2024-01-15T06:04:49.715Z,70.52
2024-01-15T06:07:16.858Z,71.43
2024-01-15T06:09:43.700Z,70.29
2024-01-15T06:12:13.870Z,71.11
2024-01-15T06:14:40.763Z,70.48
2024-01-15T06:17:07.695Z,70.58
2024-01-15T06:19:37.606Z,70.11
2024-01-15T06:22:05.272Z,69.51
2024-01-15T06:24:32.363Z,70.11
2024-01-15T06:26:59.357Z,70.77
2024-01-15T06:29:29.350Z,69.76
2024-01-15T06:31:56.262Z,70.42
2024-01-15T06:34:23.380Z,69.98
2024-01-15T06:36:50.348Z,70.30
2024-01-15T06:39:17.492Z,70.52
2024-01-15T06:41:47.006Z,70.52
2024-01-15T06:44:14.219Z,70.14
2024-01-15T06:46:44.461Z,70.46
2024-01-15T06:49:11.893Z,70.80
2024-01-15T06:51:39.466Z,71.14
2024-01-15T06:54:06.488Z,71.27
2024-01-15T06:56:33.472Z,70.72
2024-01-15T06:59:00.369Z,71.08
2024-01-15T07:01:27.353Z,70.55
2024-01-15T07:03:54.633Z,71.10
2024-01-15T07:06:22.035Z,70.91
2024-01-15T07:08:48.875Z,70.41
2024-01-15T07:11:15.753Z,70.46
2024-01-15T07:13:42.833Z,70.40
2024-01-15T07:16:09.971Z,70.58
2024-01-15T07:18:36.930Z,70.42
2024-01-15T07:21:04.088Z,69.93
2024-01-15T07:23:32.416Z,70.81
2024-01-15T07:25:59.235Z,71.20
2024-01-15T07:28:26.046Z,71.36
2024-01-15T07:30:53.560Z,70.57
2024-01-15T07:33:21.424Z,70.79
2024-01-15T07:35:48.272Z,70.35
2024-01-15T07:38:15.139Z,70.20
2024-01-15T07:40:42.049Z,70.63
2024-01-15T07:43:10.136Z,70.59
2024-01-15T07:45:37.396Z,69.84
2024-01-15T07:48:05.169Z,69.68
2024-01-15T07:50:32.119Z,69.65
2024-01-15T07:53:00.078Z,69.29
2024-01-15T07:55:27.770Z,68.97
2024-01-15T07:58:11.118Z,69.14
2024-01-15T08:00:42.362Z,68.52
2024-01-15T08:03:11.664Z,68.36
2024-01-15T08:05:41.609Z,69.52
2024-01-15T08:08:08.440Z,69.22
2024-01-15T08:10:35.308Z,69.20
2024-01-15T08:13:02.564Z,69.54
2024-01-15T08:15:31.522Z,70.04
2024-01-15T08:17:59.881Z,69.02
2024-01-15T08:20:27.277Z,69.04
2024-01-15T08:22:54.435Z,69.03
2024-01-15T08:25:22.153Z,68.77
2024-01-15T08:27:49.115Z,67.78
2024-01-15T08:30:16.283Z,65.82
2024-01-15T08:32:44.100Z,63.68
2024-01-15T08:35:11.536Z,61.90
2024-01-15T08:37:39.504Z,61.32
2024-01-15T08:40:08.340Z,61.45
2024-01-15T08:42:35.416Z,63.74
2024-01-15T08:45:03.001Z,63.88
2024-01-15T08:47:29.910Z,63.58
2024-01-15T08:49:56.800Z,63.08
2024-01-15T08:52:23.692Z,64.79
2024-01-15T08:54:50.554Z,65.61
2024-01-15T08:57:17.492Z,65.59
2024-01-15T08:59:44.487Z,65.75
2024-01-15T09:02:11.238Z,65.93
2024-01-15T09:04:38.278Z,65.94
2024-01-15T09:07:05.639Z,66.22
2024-01-15T09:09:32.499Z,66.84
2024-01-15T09:11:59.390Z,66.02
2024-01-15T09:14:35.692Z,65.73
2024-01-15T09:17:05.863Z,66.26
2024-01-15T09:19:32.962Z,66.73
2024-01-15T09:22:00.338Z,66.30
2024-01-15T09:24:28.567Z,65.14
2024-01-15T09:26:56.401Z,64.99
2024-01-15T09:29:25.218Z,64.51
2024-01-15T09:31:52.769Z,64.38
2024-01-15T09:34:20.234Z,65.28
2024-01-15T09:36:47.268Z,65.52
2024-01-15T09:39:14.217Z,65.22
2024-01-15T09:41:41.097Z,65.81
2024-01-15T09:44:10.728Z,65.06
2024-01-15T09:46:37.509Z,65.02
2024-01-15T09:49:04.391Z,66.01
2024-01-15T09:51:34.645Z,65.59
2024-01-15T09:54:02.894Z,65.28
2024-01-15T09:56:29.782Z,65.00
2024-01-15T09:58:58.478Z,65.10
2024-01-15T10:01:25.714Z,64.81
2024-01-15T10:03:52.668Z,64.56
2024-01-15T10:06:22.148Z,64.45
2024-01-15T10:08:59.845Z,63.70
2024-01-15T10:11:27.047Z,62.40
2024-01-15T10:13:57.561Z,62.04
2024-01-15T10:16:25.155Z,60.67
2024-01-15T10:18:52.629Z,60.10
2024-01-15T10:21:19.520Z,59.00
2024-01-15T10:23:46.321Z,58.11
2024-01-15T10:26:19.208Z,59.77
2024-01-15T10:28:46.483Z,59.71
2024-01-15T10:31:13.279Z,58.56
2024-01-15T10:33:40.303Z,58.45
2024-01-15T10:36:07.650Z,58.13
2024-01-15T10:38:34.555Z,56.85
2024-01-15T10:41:01.344Z,56.80
2024-01-15T10:43:29.560Z,56.71
2024-01-15T10:45:56.935Z,58.14
2024-01-15T10:48:24.280Z,57.31
2024-01-15T10:50:51.333Z,56.10
2024-01-15T10:53:18.339Z,57.22
2024-01-15T10:55:45.591Z,57.54
2024-01-15T10:58:12.545Z,57.92
2024-01-15T11:00:39.678Z,58.54
2024-01-15T11:03:07.270Z,58.96
2024-01-15T11:05:43.762Z,59.91
2024-01-15T11:08:10.894Z,59.04
2024-01-15T11:10:53.122Z,58.60
2024-01-15T11:13:27.168Z,59.82
2024-01-15T11:16:06.175Z,60.21
2024-01-15T11:18:41.283Z,60.68
2024-01-15T11:21:08.762Z,61.30
2024-01-15T11:23:50.568Z,61.35
2024-01-15T11:26:38.403Z,61.64
2024-01-15T11:29:07.494Z,61.26
2024-01-15T11:31:48.172Z,62.27
2024-01-15T11:34:15.163Z,62.22
2024-01-15T11:36:51.598Z,62.17
2024-01-15T11:39:31.778Z,63.36
2024-01-15T11:42:02.499Z,63.17
2024-01-15T11:44:29.357Z,63.95
2024-01-15T11:47:16.488Z,63.33
2024-01-15T11:50:15.572Z,63.00
2024-01-15T11:52:42.425Z,62.92
2024-01-15T11:55:12.070Z,62.55
2024-01-15T11:57:55.751Z,62.92
2024-01-15T12:00:23.648Z,62.35
2024-01-15T12:02:50.719Z,62.33
2024-01-15T12:05:19.432Z,62.16
2024-01-15T12:07:47.374Z,62.84
2024-01-15T12:10:17.696Z,62.96
2024-01-15T12:13:02.224Z,62.71
2024-01-15T12:15:30.136Z,61.98
2024-01-15T12:18:00.886Z,62.62
2024-01-15T12:20:28.012Z,62.16
2024-01-15T12:23:01.500Z,61.74
2024-01-15T12:25:30.638Z,62.11
2024-01-15T12:27:57.797Z,62.35
2024-01-15T12:30:24.892Z,62.21
2024-01-15T12:32:52.044Z,63.28
2024-01-15T12:35:18.985Z,64.39
2024-01-15T12:37:47.659Z,64.94
2024-01-15T12:40:20.761Z,65.01
2024-01-15T12:42:47.808Z,64.40
2024-01-15T12:45:14.993Z,65.83
2024-01-15T12:47:42.577Z,66.10
2024-01-15T12:50:16.596Z,65.18
2024-01-15T12:52:46.867Z,66.20
2024-01-15T12:55:15.950Z,67.05
2024-01-15T12:57:43.155Z,66.80
2024-01-15T13:00:14.583Z,66.95
2024-01-15T13:02:43.361Z,66.61
2024-01-15T13:05:12.959Z,67.03
2024-01-15T13:07:40.736Z,65.87
2024-01-15T13:10:07.983Z,66.23
2024-01-15T13:12:38.973Z,67.27
2024-01-15T13:15:06.296Z,66.99
2024-01-15T13:17:33.298Z,66.44
2024-01-15T13:20:01.489Z,65.54
2024-01-15T13:22:33.553Z,66.25
2024-01-15T13:25:02.025Z,66.71
2024-01-15T13:27:29.888Z,67.68
2024-01-15T13:29:56.950Z,67.74
2024-01-15T13:32:27.705Z,67.59
2024-01-15T13:34:56.772Z,68.21
2024-01-15T13:37:25.817Z,67.97
2024-01-15T13:39:53.978Z,68.92
2024-01-15T13:42:23.605Z,69.36
2024-01-15T13:44:50.767Z,69.45
2024-01-15T13:47:17.730Z,68.82
2024-01-15T13:49:44.633Z,69.28
2024-01-15T13:52:11.464Z,69.51
2024-01-15T13:54:48.023Z,69.43
2024-01-15T13:57:18.080Z,69.74
2024-01-15T13:59:45.180Z,69.52
2024-01-15T14:02:18.190Z,69.68
2024-01-15T14:04:49.142Z,68.16
2024-01-15T14:07:19.292Z,68.72
2024-01-15T14:09:46.568Z,67.25
2024-01-15T14:12:13.624Z,68.14
2024-01-15T14:14:41.612Z,67.44
2024-01-15T14:17:11.138Z,67.89
2024-01-15T14:19:40.735Z,68.33
2024-01-15T14:22:07.855Z,68.12
2024-01-15T14:24:36.019Z,67.88
2024-01-15T14:27:02.777Z,68.01
2024-01-15T14:29:29.792Z,66.92
2024-01-15T14:31:56.735Z,67.24
2024-01-15T14:34:27.250Z,67.05
2024-01-15T14:36:59.926Z,66.62
2024-01-15T14:39:29.986Z,66.67
2024-01-15T14:41:56.852Z,66.92
2024-01-15T14:44:23.934Z,66.94
2024-01-15T14:46:51.419Z,67.75
2024-01-15T14:49:18.909Z,66.62
2024-01-15T14:51:46.234Z,66.43
2024-01-15T14:54:13.128Z,66.49
2024-01-15T14:56:40.085Z,65.74
2024-01-15T14:59:06.965Z,66.06
2024-01-15T15:01:34.035Z,66.05
2024-01-15T15:04:01.056Z,67.08
2024-01-15T15:06:29.548Z,67.26
2024-01-15T15:08:58.873Z,67.84
2024-01-15T15:11:29.647Z,67.76
2024-01-15T15:13:56.600Z,67.70
2024-01-15T15:16:23.424Z,67.25
2024-01-15T15:18:50.684Z,66.59
2024-01-15T15:21:17.915Z,66.62
2024-01-15T15:23:45.094Z,66.93
2024-01-15T15:26:13.610Z,65.80
2024-01-15T15:28:40.463Z,65.08
2024-01-15T15:31:12.892Z,65.74
2024-01-15T15:33:40.230Z,65.70
2024-01-15T15:36:07.612Z,65.61
2024-01-15T15:38:35.901Z,65.49
2024-01-15T15:41:02.792Z,66.57
2024-01-15T15:43:29.785Z,65.97
2024-01-15T15:45:57.376Z,67.13
2024-01-15T15:48:24.548Z,66.54
2024-01-15T15:50:52.516Z,66.29
2024-01-15T15:53:23.437Z,66.25
2024-01-15T15:55:50.664Z,66.92
2024-01-15T15:58:17.450Z,66.20
2024-01-15T16:00:44.389Z,66.28
2024-01-15T16:03:11.224Z,67.12
2024-01-15T16:05:45.577Z,67.94
2024-01-15T16:08:19.064Z,66.92
2024-01-15T16:10:47.414Z,66.69
2024-01-15T16:13:15.292Z,66.82
2024-01-15T16:15:42.271Z,67.06
2024-01-15T16:23:19.052Z,67.19
2024-01-15T16:23:33.470Z,68.62
2024-01-15T16:24:08.193Z,68.22
2024-01-15T16:26:29.777Z,68.08
2024-01-15T16:28:58.039Z,68.37
2024-01-15T16:31:25.228Z,69.22
2024-01-15T16:33:55.575Z,68.64
2024-01-15T16:36:26.519Z,68.93
2024-01-15T16:38:53.605Z,68.56
2024-01-15T16:41:20.516Z,69.23
2024-01-15T16:43:47.624Z,69.68
2024-01-15T16:46:14.450Z,70.00
2024-01-15T16:48:41.323Z,70.09
2024-01-15T16:51:08.203Z,69.55
2024-01-15T16:53:35.112Z,69.63
2024-01-15T16:56:02.089Z,70.08
2024-01-15T16:58:28.940Z,69.58
2024-01-15T17:00:55.762Z,69.04
2024-01-15T17:03:22.965Z,69.55
2024-01-15T17:05:49.821Z,68.40
2024-01-15T17:08:19.236Z,68.11
2024-01-15T17:10:46.057Z,68.13
2024-01-15T17:13:12.885Z,67.96
2024-01-15T17:15:41.038Z,67.92
2024-01-15T17:18:08.846Z,68.04
2024-01-15T17:20:35.912Z,67.16
2024-01-15T17:23:02.829Z,66.35
2024-01-15T17:25:31.755Z,66.27
2024-01-15T17:27:58.611Z,66.71
2024-01-15T17:30:25.716Z,65.59
2024-01-15T17:32:52.720Z,65.26
2024-01-15T17:35:19.936Z,65.68
2024-01-15T17:37:46.856Z,65.44
2024-01-15T17:40:13.637Z,66.29
2024-01-15T17:42:40.481Z,65.92
2024-01-15T17:45:12.505Z,65.23
2024-01-15T17:47:42.413Z,65.51
2024-01-15T17:50:09.527Z,65.02
2024-01-15T17:52:37.642Z,64.85
2024-01-15T17:55:04.776Z,64.73
2024-01-15T17:57:31.566Z,64.06
2024-01-15T17:59:58.672Z,63.99
2024-01-15T18:02:25.589Z,63.62
2024-01-15T18:04:58.569Z,63.96
2024-01-15T18:07:25.793Z,63.89
2024-01-15T18:09:56.590Z,63.91
2024-01-15T18:12:25.329Z,64.66
2024-01-15T18:14:52.163Z,65.14
2024-01-15T18:17:19.093Z,64.55
2024-01-15T18:19:45.974Z,65.60
2024-01-15T18:22:14.260Z,66.20
2024-01-15T18:24:41.164Z,65.76
2024-01-15T18:27:09.595Z,65.64
2024-01-15T18:29:36.480Z,65.87
2024-01-15T18:32:04.010Z,67.26
2024-01-15T18:34:31.012Z,66.70
2024-01-15T18:36:58.082Z,66.94
2024-01-15T18:39:24.976Z,67.02
2024-01-15T18:41:54.627Z,68.07
2024-01-15T18:44:23.017Z,68.34
2024-01-15T18:46:50.218Z,68.86
2024-01-15T18:49:19.685Z,69.91
2024-01-15T18:51:49.254Z,69.52
2024-01-15T18:54:17.224Z,68.61
2024-01-15T18:56:44.763Z,69.20
2024-01-15T18:59:12.660Z,67.98
2024-01-15T19:01:39.754Z,67.97
2024-01-15T19:04:06.592Z,68.50
2024-01-15T19:06:33.421Z,69.30
2024-01-15T19:09:00.266Z,70.16
2024-01-15T19:11:27.468Z,69.83
2024-01-15T19:13:54.664Z,69.02
2024-01-15T19:16:24.377Z,69.05
2024-01-15T19:18:52.228Z,68.92
2024-01-15T19:21:19.211Z,67.75
2024-01-15T19:23:46.084Z,68.79
2024-01-15T19:26:20.263Z,68.15
2024-01-15T19:28:47.568Z,67.54
2024-01-15T19:31:14.503Z,67.58
2024-01-15T19:33:43.713Z,68.10
2024-01-15T19:36:22.220Z,68.29
2024-01-15T19:38:49.661Z,69.50
2024-01-15T19:41:16.898Z,70.89
2024-01-15T19:43:43.718Z,71.21
2024-01-15T19:46:10.536Z,70.92
2024-01-15T19:48:37.942Z,70.87
2024-01-15T19:51:05.090Z,70.73
2024-01-15T19:53:31.874Z,70.35
2024-01-15T19:55:59.082Z,69.61
2024-01-15T19:58:25.949Z,68.31
2024-01-15T20:00:53.059Z,68.22
2024-01-15T20:03:19.910Z,68.98
2024-01-15T20:05:52.418Z,72.22
2024-01-15T20:08:19.501Z,74.02
2024-01-15T20:10:46.379Z,73.95
2024-01-15T20:13:13.105Z,73.39
2024-01-15T20:15:45.488Z,73.20
2024-01-15T20:18:12.463Z,72.53
2024-01-15T20:20:44.208Z,70.69
2024-01-15T20:23:11.217Z,70.90
2024-01-15T20:25:38.571Z,70.46
2024-01-15T20:28:08.320Z,69.50
2024-01-15T20:30:35.069Z,69.51
2024-01-15T20:33:02.292Z,68.90
2024-01-15T20:35:30.075Z,69.35
2024-01-15T20:37:58.628Z,69.58
2024-01-15T20:40:25.784Z,69.74
2024-01-15T20:42:52.676Z,70.52
2024-01-15T20:45:19.626Z,70.86
2024-01-15T20:47:46.443Z,70.71
2024-01-15T20:50:13.732Z,70.37
2024-01-15T20:52:40.679Z,69.54
2024-01-15T20:55:07.903Z,69.97
2024-01-15T20:57:34.796Z,69.41
2024-01-15T21:00:01.674Z,69.95
2024-01-15T21:02:28.934Z,70.97
2024-01-15T21:04:56.540Z,70.22
2024-01-15T21:07:29.256Z,71.20
2024-01-15T21:09:56.317Z,70.52
2024-01-15T21:12:23.242Z,70.67
2024-01-15T21:14:50.193Z,71.38
2024-01-15T21:17:17.059Z,71.50
2024-01-15T21:19:47.012Z,70.76
2024-01-15T21:22:13.990Z,69.68
2024-01-15T21:24:40.823Z,70.67
2024-01-15T21:27:07.572Z,70.62
2024-01-15T21:29:34.414Z,70.45
2024-01-15T21:32:01.288Z,70.48
2024-01-15T21:34:28.211Z,69.03
2024-01-15T21:36:55.346Z,68.68
2024-01-15T21:39:22.184Z,67.10
2024-01-15T21:41:50.626Z,66.14
2024-01-15T21:44:20.671Z,65.09
2024-01-15T21:46:47.594Z,64.98
2024-01-15T21:49:14.707Z,63.31
2024-01-15T21:51:41.512Z,62.48
2024-01-15T21:54:08.841Z,62.21
2024-01-15T21:56:35.682Z,63.57
2024-01-15T21:59:02.500Z,63.50
2024-01-15T22:01:29.761Z,63.01
2024-01-15T22:03:59.703Z,63.99
2024-01-15T22:06:26.692Z,63.29
2024-01-15T22:08:53.712Z,63.34
2024-01-15T22:11:20.609Z,63.16
2024-01-15T22:13:47.433Z,61.58
2024-01-15T22:16:14.536Z,61.25
2024-01-15T22:18:41.439Z,61.39
2024-01-15T22:21:08.309Z,61.23
2024-01-15T22:23:35.170Z,60.56
2024-01-15T22:26:02.540Z,61.58
2024-01-15T22:28:32.272Z,61.11
2024-01-15T22:30:59.407Z,60.94
2024-01-15T22:33:26.329Z,60.76
2024-01-15T22:35:53.308Z,60.89
2024-01-15T22:38:20.163Z,59.34
2024-01-15T22:40:46.991Z,60.37
2024-01-15T22:43:13.815Z,60.25
2024-01-15T22:45:40.722Z,60.52
2024-01-15T22:48:08.385Z,60.25
2024-01-15T22:50:35.400Z,60.48
2024-01-15T22:53:02.279Z,60.26
2024-01-15T22:55:29.216Z,60.04
2024-01-15T22:57:59.282Z,60.41
2024-01-15T23:00:26.102Z,61.73
2024-01-15T23:03:00.846Z,61.80
2024-01-15T23:05:28.231Z,62.85
2024-01-15T23:07:58.396Z,63.04
2024-01-15T23:10:25.265Z,62.70
2024-01-15T23:12:52.458Z,62.80
2024-01-15T23:15:19.439Z,63.34
2024-01-15T23:17:47.552Z,63.65
2024-01-15T23:20:14.524Z,65.01
2024-01-15T23:22:41.375Z,64.95
2024-01-15T23:25:09.182Z,65.13
2024-01-15T23:27:39.560Z,66.01
2024-01-15T23:30:07.107Z,67.03
2024-01-15T23:32:34.146Z,66.85
2024-01-15T23:35:02.544Z,67.03
2024-01-15T23:37:30.326Z,67.57
2024-01-15T23:39:57.601Z,67.18
2024-01-15T23:42:27.840Z,67.14
2024-01-15T23:44:54.673Z,67.52
2024-01-15T23:47:21.528Z,67.69
2024-01-15T23:49:48.373Z,67.00
2024-01-15T23:52:15.453Z,67.49
2024-01-15T23:54:42.261Z,67.68
2024-01-15T23:57:09.111Z,68.31
2024-01-15T23:59:38.988Z,68.66
